Thunder radar more information blitzortung!


Radar de pluja more information rain snow radar


Visita la nostra xarxa de llocs de meteo:

Template documentation
and downloads

And another site



No particular awareness of the weather is required.    There are no Weather-warnings

Pagina Historial Weather Underground text

Diari Resum Setembre 28, 2017 Unitats:  Imperial    Mètric   Tant
« Previous Dia
SegĂźent Dia »
Diari Setmana Mensual Anual Personalitzada
  Maxima: Minima: Media:
Temperatura: 77.7 °F 59.5 °F 70.3 °F
Punt de rosada: 61.9 °F 55.8 °F 58.6 °F
Humitat: 88 % 54 % 68 %
Wind Speed: 10.4 mph 0 mph 3.5 mph
RĂ fegues de vent: 10.4 mph - -
Vent:- - SSE
Pression baro: 30.4 in 30.2 in -
Precipitacions: 0 in    
Historical Graphs
 
 
Dades de taula per Setembre 28, 2017
Temps Temperatura Punt de rosada Pression baro Vent Wind Speed RĂ fegues de vent Humitat Rainfall Rate (Hourly)
00:03 63.9 °F 56.5 °F 30.3 in Calm     77 % 0 in
01:35 60.8 °F 56.7 °F 30.3 in Calm   2 mph 86 % 0 in
01:45 60.3 °F 55.8 °F 30.3 in WSW 1 mph 2 mph 85 % 0 in
01:55 60.4 °F 56.1 °F 30.3 in Calm   2 mph 86 % 0 in
02:05 60.8 °F 56.8 °F 30.3 in Calm     87 % 0 in
02:15 60.8 °F 56.8 °F 30.3 in NNE 1 mph 2 mph 87 % 0 in
02:25 60.4 °F 56.1 °F 30.3 in NE 1 mph 2 mph 86 % 0 in
02:35 60.1 °F 55.9 °F 30.3 in WSW 1 mph 2 mph 86 % 0 in
02:45 60.1 °F 56.1 °F 30.3 in Calm   1 mph 87 % 0 in
02:55 60.1 °F 56.1 °F 30.3 in Calm     87 % 0 in
03:05 60.1 °F 56.5 °F 30.3 in Calm     88 % 0 in
03:15 60.1 °F 56.5 °F 30.3 in Calm     88 % 0 in
03:25 59.5 °F 55.8 °F 30.3 in WNW 1 mph 2 mph 87 % 0 in
03:35 60.1 °F 56.5 °F 30.3 in Calm   2 mph 88 % 0 in
03:45 60.6 °F 57 °F 30.3 in WSW 1 mph 2 mph 88 % 0 in
03:55 61 °F 57 °F 30.3 in SW 2 mph 2 mph 87 % 0 in
04:05 61.3 °F 57.4 °F 30.3 in SW 1 mph 2 mph 87 % 0 in
04:15 61.7 °F 58.1 °F 30.3 in Calm   1 mph 88 % 0 in
04:25 62.2 °F 58.3 °F 30.3 in Calm     87 % 0 in
04:35 62.4 °F 58.5 °F 30.3 in Calm   2 mph 87 % 0 in
04:45 62.8 °F 58.5 °F 30.3 in Calm   2 mph 86 % 0 in
04:55 63.1 °F 58.6 °F 30.3 in NE 2 mph 2 mph 85 % 0 in
05:05 63.3 °F 58.5 °F 30.3 in NE 1 mph 1 mph 84 % 0 in
05:15 64 °F 58.8 °F 30.3 in NE 2 mph 3 mph 83 % 0 in
05:25 64.6 °F 59 °F 30.3 in NE 1 mph 2 mph 82 % 0 in
05:35 64.8 °F 58.8 °F 30.3 in NNE 2 mph 4 mph 81 % 0 in
05:45 65.1 °F 58.8 °F 30.3 in NE 3 mph 4 mph 80 % 0 in
10:47 65.8 °F 59.2 °F 30.3 in ENE 3.5 mph 3.5 mph 79 % 0 in
10:52 66.2 °F 59.2 °F 30.3 in WNW 1.4 mph 1.4 mph 78 % 0 in
10:57 66.6 °F 59.5 °F 30.3 in ENE 2.3 mph 2.3 mph 78 % 0 in
11:02 66.7 °F 59.4 °F 30.4 in NNW 3.5 mph 3.5 mph 77 % 0 in
11:07 67.1 °F 59.5 °F 30.4 in NNE 2.3 mph 2.3 mph 77 % 0 in
11:12 67.3 °F 59.7 °F 30.4 in ENE 4.3 mph 4.3 mph 77 % 0 in
11:17 67.8 °F 60.1 °F 30.4 in ENE 3.5 mph 3.5 mph 76 % 0 in
11:19 68 °F 60.3 °F 30.4 in NE 4.6 mph 4.6 mph 76 % 0 in
11:24 68.9 °F 60.3 °F 30.4 in NNE 4.6 mph 4.6 mph 74 % 0 in
11:29 69.4 °F 60.8 °F 30.4 in NE 5.9 mph 5.9 mph 74 % 0 in
11:34 70.2 °F 61.5 °F 30.3 in NNE 4.6 mph 4.6 mph 74 % 0 in
11:39 70.5 °F 61.3 °F 30.3 in ENE 3.6 mph 3.6 mph 73 % 0 in
11:44 70.7 °F 61.2 °F 30.3 in East 2.6 mph 2.6 mph 72 % 0 in
11:54 72.1 °F 61.9 °F 30.3 in ESE 3.5 mph 3.5 mph 70 % 0 in
11:59 71.6 °F 61.3 °F 30.3 in ENE 4.6 mph 4.6 mph 70 % 0 in
12:04 71.8 °F 61.2 °F 30.3 in ESE 4.6 mph 4.6 mph 69 % 0 in
12:09 71.8 °F 61.2 °F 30.3 in SW 2.3 mph 2.3 mph 69 % 0 in
12:14 72.3 °F 61.2 °F 30.3 in ESE 3.5 mph 3.5 mph 68 % 0 in
12:19 72 °F 60.8 °F 30.3 in NNW 3.5 mph 3.5 mph 68 % 0 in
12:20 72 °F 60.8 °F 30.3 in NNW 2.3 mph 2.3 mph 68 % 0 in
12:25 72.5 °F 61 °F 30.3 in North 2.3 mph 2.3 mph 67 % 0 in
12:30 72.9 °F 61.3 °F 30.3 in West 2.4 mph 2.4 mph 67 % 0 in
12:35 73.9 °F 61.9 °F 30.3 in ESE 1.6 mph   66 % 0 in
12:40 73.9 °F 61 °F 30.3 in ESE 5.8 mph 5.8 mph 64 % 0 in
12:45 73.6 °F 60.6 °F 30.3 in East 4.9 mph 4.9 mph 64 % 0 in
12:50 73.4 °F 60.4 °F 30.3 in SSE 4.6 mph 4.6 mph 64 % 0 in
12:55 74.5 °F 61.5 °F 30.3 in ENE 2.3 mph 2.3 mph 64 % 0 in
13:00 74.5 °F 61.2 °F 30.3 in East 3.5 mph 3.5 mph 63 % 0 in
13:05 74.8 °F 61.3 °F 30.3 in SSE 1.2 mph 1.2 mph 63 % 0 in
13:10 76.3 °F 61.9 °F 30.3 in SSE 2.3 mph 2.3 mph 61 % 0 in
13:15 75.7 °F 59.9 °F 30.3 in SSE 5.8 mph 5.8 mph 58 % 0 in
13:20 75.9 °F 61 °F 30.3 in South 2.3 mph 2.3 mph 60 % 0 in
13:25 76.6 °F 61.2 °F 30.3 in ENE 5.8 mph 5.8 mph 59 % 0 in
13:26 76.5 °F 61.2 °F 30.3 in East 5.8 mph 5.8 mph 59 % 0 in
13:31 76.1 °F 60.3 °F 30.3 in ENE 3.5 mph 3.5 mph 58 % 0 in
13:36 75.7 °F 59.4 °F 30.3 in ESE 4.6 mph 4.7 mph 57 % 0 in
13:41 75 °F 59.7 °F 30.3 in ESE 6 mph 6 mph 59 % 0 in
13:46 75.7 °F 59.4 °F 30.3 in East 4.9 mph 5.9 mph 57 % 0 in
13:51 75.6 °F 59.4 °F 30.3 in ESE 7.6 mph 7.6 mph 57 % 0 in
13:56 75.7 °F 59.4 °F 30.3 in East 6.2 mph 6.2 mph 57 % 0 in
14:01 76.3 °F 59.9 °F 30.3 in ENE 5.8 mph 5.8 mph 57 % 0 in
14:06 76.8 °F 59.9 °F 30.3 in ESE 6.9 mph 6.9 mph 56 % 0 in
14:11 75.6 °F 58.8 °F 30.3 in East 8.1 mph 8.1 mph 56 % 0 in
14:16 75.7 °F 58.8 °F 30.3 in ESE 10.4 mph 10.4 mph 56 % 0 in
14:21 75.7 °F 58.5 °F 30.3 in ESE 10.4 mph 10.4 mph 55 % 0 in
14:26 75.7 °F 58.8 °F 30.3 in East 8.1 mph 8.1 mph 56 % 0 in
14:36 76.3 °F 59.4 °F 30.3 in ESE 6.9 mph 6.9 mph 56 % 0 in
14:41 75.7 °F 59.4 °F 30.3 in ESE 6.4 mph 6.4 mph 57 % 0 in
14:46 76.5 °F 60.1 °F 30.3 in SSE 8.1 mph 8.1 mph 57 % 0 in
14:51 77.2 °F 60.3 °F 30.3 in SSE 3.5 mph 3.5 mph 56 % 0 in
14:56 77.4 °F 60.4 °F 30.3 in East 6.9 mph 6.9 mph 56 % 0 in
15:01 76.6 °F 60.3 °F 30.3 in South 8.1 mph 8.1 mph 57 % 0 in
15:06 76.8 °F 59.9 °F 30.3 in SSW 4.6 mph 4.6 mph 56 % 0 in
15:11 76.6 °F 60.3 °F 30.3 in SW 7.8 mph 7.8 mph 57 % 0 in
15:16 76.3 °F 59.9 °F 30.3 in ENE 4 mph 4 mph 57 % 0 in
15:21 75.7 °F 59.4 °F 30.3 in ESE 5.9 mph 5.9 mph 57 % 0 in
15:26 75.7 °F 59.9 °F 30.3 in ESE 6 mph 6 mph 58 % 0 in
15:31 75.7 °F 59.4 °F 30.3 in ESE 6.9 mph 6.9 mph 57 % 0 in
15:36 74.8 °F 59.5 °F 30.3 in ESE 7.1 mph 7.1 mph 59 % 0 in
15:41 74.5 °F 59.2 °F 30.3 in ESE 5.8 mph 5.8 mph 59 % 0 in
15:46 74.3 °F 59 °F 30.2 in ESE 5.8 mph 5.8 mph 59 % 0 in
15:51 74.7 °F 59.4 °F 30.2 in ESE 3.5 mph 3.5 mph 59 % 0 in
15:56 74.3 °F 59 °F 30.2 in East 8.1 mph 8.1 mph 59 % 0 in
16:01 74.7 °F 59.9 °F 30.2 in SSW 3.5 mph 3.5 mph 60 % 0 in
16:06 74.5 °F 59.7 °F 30.2 in ESE 5.8 mph 5.8 mph 60 % 0 in
16:11 74.1 °F 59.4 °F 30.2 in East 5.8 mph 5.8 mph 60 % 0 in
16:16 74.1 °F 59.4 °F 30.2 in ESE 5.8 mph 5.8 mph 60 % 0 in
16:21 74.3 °F 59.5 °F 30.2 in East 4.7 mph 4.7 mph 60 % 0 in
16:26 73.9 °F 59.2 °F 30.2 in East 4.6 mph 4.6 mph 60 % 0 in
16:31 73.9 °F 59.2 °F 30.3 in East 8.1 mph 8.1 mph 60 % 0 in
16:36 73.9 °F 59.2 °F 30.3 in ESE 5.9 mph 5.9 mph 60 % 0 in
16:41 73.9 °F 59.2 °F 30.3 in ESE 6.9 mph 6.9 mph 60 % 0 in
16:51 74.3 °F 59.5 °F 30.2 in South 4.6 mph 4.6 mph 60 % 0 in
16:56 74.7 °F 59.4 °F 30.2 in South 4.6 mph 4.6 mph 59 % 0 in
17:01 74.7 °F 59.4 °F 30.2 in South 3.5 mph 3.5 mph 59 % 0 in
17:06 74.5 °F 59.2 °F 30.2 in East 3.5 mph 3.5 mph 59 % 0 in
17:07 74.5 °F 59.2 °F 30.2 in ESE 3.8 mph 3.8 mph 59 % 0 in
17:12 74.3 °F 59 °F 30.2 in ENE 4.6 mph 4.6 mph 59 % 0 in
17:17 74.5 °F 58.6 °F 30.2 in ESE 4.6 mph 4.6 mph 58 % 0 in
17:22 75 °F 59.7 °F 30.2 in SE 4.6 mph 4.6 mph 59 % 0 in
17:27 75.6 °F 59.4 °F 30.2 in South 4.6 mph 4.6 mph 57 % 0 in
17:32 75.7 °F 59.4 °F 30.2 in North 2.3 mph 2.3 mph 57 % 0 in
17:37 76.3 °F 59.9 °F 30.2 in WSW 3.6 mph 3.6 mph 57 % 0 in
17:42 76.8 °F 59.9 °F 30.2 in SW 4.6 mph 4.6 mph 56 % 0 in
17:47 77.5 °F 59.5 °F 30.2 in SSW 4.6 mph 4.6 mph 54 % 0 in
17:52 77.7 °F 59.7 °F 30.2 in SSW 4.6 mph 4.6 mph 54 % 0 in
17:57 77.2 °F 59.2 °F 30.2 in SSW 6.9 mph 6.9 mph 54 % 0 in
18:02 76.5 °F 59.2 °F 30.2 in SW 4.6 mph 4.6 mph 55 % 0 in
18:07 76.8 °F 58.8 °F 30.2 in West 4.6 mph 4.6 mph 54 % 0 in
18:12 76.8 °F 58.8 °F 30.2 in South 2.6 mph 2.6 mph 54 % 0 in
18:17 76.8 °F 58.8 °F 30.2 in SSW 4.6 mph 4.6 mph 54 % 0 in
18:22 76.5 °F 58.6 °F 30.2 in SW 9.2 mph 9.2 mph 54 % 0 in
18:27 76.3 °F 58.5 °F 30.2 in SW 5.8 mph 5.8 mph 54 % 0 in
18:32 76.1 °F 58.3 °F 30.2 in SW 4.6 mph 4.6 mph 54 % 0 in
18:37 75.9 °F 58.1 °F 30.2 in SSW 5.8 mph 5.8 mph 54 % 0 in
18:42 75.6 °F 58.3 °F 30.2 in SW 5.8 mph 5.8 mph 55 % 0 in
18:47 74.8 °F 58.1 °F 30.2 in SW 4.6 mph 4.6 mph 56 % 0 in
18:52 74.8 °F 58.1 °F 30.2 in SSW 4.6 mph 4.6 mph 56 % 0 in
18:57 74.7 °F 57.9 °F 30.2 in SSE 3.5 mph 3.5 mph 56 % 0 in
19:02 74.3 °F 57.6 °F 30.2 in SW 5.8 mph 5.8 mph 56 % 0 in
19:07 73.8 °F 57.6 °F 30.2 in WSW 3.5 mph 3.5 mph 57 % 0 in
19:12 73.2 °F 57 °F 30.2 in SW 3.5 mph 3.5 mph 57 % 0 in
19:17 72.9 °F 56.7 °F 30.2 in SW 4.7 mph 4.7 mph 57 % 0 in
19:22 72.3 °F 56.7 °F 30.2 in South 5.8 mph 5.8 mph 58 % 0 in
19:27 72 °F 56.5 °F 30.2 in SW 5.9 mph 5.9 mph 58 % 0 in
19:29 71.8 °F 56.7 °F 30.2 in SW 6.9 mph 6.9 mph 59 % 0 in
19:34 71.4 °F 56.8 °F 30.2 in WSW 5.9 mph 5.9 mph 60 % 0 in
19:39 71.1 °F 56.8 °F 30.2 in SSW 4.6 mph 4.6 mph 61 % 0 in
19:44 70.7 °F 56.7 °F 30.2 in South 4 mph 4 mph 61 % 0 in
19:49 70.3 °F 56.7 °F 30.2 in SW 4.6 mph 4.6 mph 62 % 0 in
19:54 70.2 °F 57 °F 30.2 in SW 4.6 mph 4.6 mph 63 % 0 in
19:59 69.8 °F 56.7 °F 30.2 in SW 6.9 mph 6.9 mph 63 % 0 in
20:04 69.6 °F 56.8 °F 30.2 in SSW 3.5 mph 3.5 mph 64 % 0 in
20:09 69.4 °F 57.2 °F 30.2 in WSW 4.6 mph 4.6 mph 65 % 0 in
20:14 69.3 °F 57 °F 30.2 in SW 4.6 mph 4.6 mph 65 % 0 in
20:19 69.1 °F 57.2 °F 30.2 in SW 3.5 mph 3.5 mph 66 % 0 in
20:24 68.9 °F 57 °F 30.2 in West 3.5 mph 3.5 mph 66 % 0 in
20:25 68.9 °F 57 °F 30.2 in WSW 3.5 mph 3.5 mph 66 % 0 in
20:30 68.7 °F 57.4 °F 30.2 in SW 2.4 mph 2.4 mph 67 % 0 in
20:35 68.5 °F 57 °F 30.2 in SW 2.4 mph 2.6 mph 67 % 0 in
20:40 68.4 °F 57.4 °F 30.2 in SW 3.5 mph 3.5 mph 68 % 0 in
20:45 68.2 °F 57.2 °F 30.2 in South 5.8 mph 5.8 mph 68 % 0 in
20:50 68 °F 57.4 °F 30.2 in SSW 3.5 mph 3.5 mph 69 % 0 in
20:55 68 °F 57.4 °F 30.2 in SW 3.5 mph 3.5 mph 69 % 0 in
21:00 67.8 °F 58.1 °F 30.2 in WSW 2.4 mph 2.4 mph 71 % 0 in
21:05 67.6 °F 57.9 °F 30.2 in SSW 3.5 mph 3.5 mph 71 % 0 in
21:10 67.6 °F 57.9 °F 30.2 in WSW 2.3 mph 2.6 mph 71 % 0 in
21:15 67.5 °F 58.1 °F 30.2 in SW 3.1 mph 3.1 mph 72 % 0 in
21:20 67.3 °F 57.9 °F 30.2 in SW 2.6 mph 2.6 mph 72 % 0 in
21:25 67.3 °F 57.9 °F 30.2 in SW 2.4 mph 2.4 mph 72 % 0 in
21:30 67.1 °F 58.3 °F 30.2 in SW 2 mph 2 mph 73 % 0 in
21:35 67.1 °F 58.3 °F 30.2 in WSW 1.2 mph 1.2 mph 73 % 0 in
21:40 66.9 °F 57.9 °F 30.2 in Calm     73 % 0 in
21:45 66.7 °F 57.7 °F 30.2 in Calm     73 % 0 in
21:50 66.7 °F 58.3 °F 30.3 in Calm     74 % 0 in
21:55 66.6 °F 57.9 °F 30.3 in NW 0.9 mph   74 % 0 in
22:00 66.4 °F 57.7 °F 30.3 in Calm     74 % 0 in
22:05 66.2 °F 57.7 °F 30.3 in NNW 1.2 mph 1.2 mph 74 % 0 in
22:10 66.2 °F 57.7 °F 30.3 in Calm     74 % 0 in
22:15 66.2 °F 57.7 °F 30.3 in WNW 1.6 mph   74 % 0 in
22:20 66.2 °F 57.7 °F 30.3 in West 1.2 mph 1.4 mph 74 % 0 in
22:25 66 °F 58.3 °F 30.3 in West 0.9 mph   76 % 0 in
22:30 66 °F 58.3 °F 30.3 in Calm     76 % 0 in
22:35 65.8 °F 58.1 °F 30.3 in Calm     76 % 0 in
22:40 65.7 °F 57.9 °F 30.3 in Calm     76 % 0 in
22:45 65.5 °F 57.7 °F 30.3 in Calm     76 % 0 in
22:50 65.3 °F 57.9 °F 30.3 in Calm     77 % 0 in
22:55 65.1 °F 57.7 °F 30.3 in Calm     77 % 0 in
23:00 64.9 °F 57.6 °F 30.3 in West 1.2 mph 1.2 mph 77 % 0 in
23:06 64.8 °F 57.4 °F 30.3 in West 1.2 mph 1.2 mph 77 % 0 in
23:11 64.8 °F 57.4 °F 30.3 in West 0.9 mph   77 % 0 in
23:16 64.6 °F 57.2 °F 30.3 in West 1.2 mph 1.2 mph 77 % 0 in
23:21 64.4 °F 57 °F 30.3 in West 1.2 mph 1.2 mph 77 % 0 in
23:26 64.4 °F 57.4 °F 30.3 in Calm     78 % 0 in
23:31 64.4 °F 57.4 °F 30.3 in Calm     78 % 0 in
23:36 64.2 °F 57.2 °F 30.3 in Calm     78 % 0 in
23:41 64.2 °F 57.2 °F 30.3 in Calm     78 % 0 in
23:46 64.2 °F 57.2 °F 30.3 in Calm     78 % 0 in
23:51 64 °F 57.4 °F 30.3 in Calm     79 % 0 in
23:56 63.9 °F 57.2 °F 30.3 in NNW 1.4 mph 1.4 mph 79 % 0 in
Meteo Sesrovires
Elogis d' Weather Underground - 3.5 mb

Guio original per  Jim McMurry - jmcmurry@mwt.net Adaptat per a la plantilla per  Wim van der Kuil - Leuven-Template.eu

Trobareu la nostra informacio del temps tambe a:

Weather Underground

AWEKAS